sensor_id;sensor_type;location;lat;lon;timestamp;P1;durP1;ratioP1;P2;durP2;ratioP2
47635;SDS011;33364;50.766;15.338;2023-02-11T00:00:05;65.88;;;30.58;;
47635;SDS011;33364;50.766;15.338;2023-02-11T00:02:51;52.13;;;25.77;;
47635;SDS011;33364;50.766;15.338;2023-02-11T00:05:17;54.78;;;27.38;;
47635;SDS011;33364;50.766;15.338;2023-02-11T00:07:43;57.08;;;27.63;;
47635;SDS011;33364;50.766;15.338;2023-02-11T00:10:09;66.97;;;30.13;;
47635;SDS011;33364;50.766;15.338;2023-02-11T00:12:35;64.10;;;28.80;;
47635;SDS011;33364;50.766;15.338;2023-02-11T00:15:02;61.17;;;31.00;;
47635;SDS011;33364;50.766;15.338;2023-02-11T00:17:28;68.13;;;31.63;;
47635;SDS011;33364;50.766;15.338;2023-02-11T00:19:54;62.53;;;28.38;;
47635;SDS011;33364;50.766;15.338;2023-02-11T00:22:19;58.75;;;28.23;;
47635;SDS011;33364;50.766;15.338;2023-02-11T00:24:45;54.67;;;26.85;;
47635;SDS011;33364;50.766;15.338;2023-02-11T00:27:11;60.83;;;29.23;;
47635;SDS011;33364;50.766;15.338;2023-02-11T00:29:37;57.58;;;28.20;;
47635;SDS011;33364;50.766;15.338;2023-02-11T00:32:03;59.72;;;28.35;;
47635;SDS011;33364;50.766;15.338;2023-02-11T00:34:30;58.97;;;29.15;;
47635;SDS011;33364;50.766;15.338;2023-02-11T00:36:56;61.63;;;30.15;;
47635;SDS011;33364;50.766;15.338;2023-02-11T00:39:22;52.28;;;26.35;;
47635;SDS011;33364;50.766;15.338;2023-02-11T00:41:47;54.78;;;25.50;;
47635;SDS011;33364;50.766;15.338;2023-02-11T00:44:13;57.75;;;26.58;;
47635;SDS011;33364;50.766;15.338;2023-02-11T00:46:39;55.45;;;26.00;;
47635;SDS011;33364;50.766;15.338;2023-02-11T00:49:05;56.47;;;25.95;;
47635;SDS011;33364;50.766;15.338;2023-02-11T00:51:30;50.35;;;27.15;;
47635;SDS011;33364;50.766;15.338;2023-02-11T00:53:56;45.38;;;23.90;;
47635;SDS011;33364;50.766;15.338;2023-02-11T00:56:22;50.65;;;24.88;;
47635;SDS011;33364;50.766;15.338;2023-02-11T00:58:48;52.45;;;26.52;;
47635;SDS011;33364;50.766;15.338;2023-02-11T01:01:14;45.00;;;22.38;;
47635;SDS011;33364;50.766;15.338;2023-02-11T01:03:40;46.67;;;23.35;;
47635;SDS011;33364;50.766;15.338;2023-02-11T01:06:06;46.90;;;24.13;;
47635;SDS011;33364;50.766;15.338;2023-02-11T01:08:34;48.28;;;23.90;;
47635;SDS011;33364;50.766;15.338;2023-02-11T01:11:01;45.50;;;22.30;;
47635;SDS011;33364;50.766;15.338;2023-02-11T01:13:29;40.90;;;20.23;;
47635;SDS011;33364;50.766;15.338;2023-02-11T01:15:57;40.92;;;21.30;;
47635;SDS011;33364;50.766;15.338;2023-02-11T01:18:23;49.25;;;24.00;;
47635;SDS011;33364;50.766;15.338;2023-02-11T01:20:49;42.97;;;22.73;;
47635;SDS011;33364;50.766;15.338;2023-02-11T01:23:16;49.30;;;22.98;;
47635;SDS011;33364;50.766;15.338;2023-02-11T01:25:42;41.42;;;21.73;;
47635;SDS011;33364;50.766;15.338;2023-02-11T01:28:27;37.88;;;20.55;;
47635;SDS011;33364;50.766;15.338;2023-02-11T01:30:53;45.67;;;21.33;;
47635;SDS011;33364;50.766;15.338;2023-02-11T01:33:20;59.17;;;26.25;;
47635;SDS011;33364;50.766;15.338;2023-02-11T01:35:46;52.75;;;25.88;;
47635;SDS011;33364;50.766;15.338;2023-02-11T01:38:14;39.08;;;20.13;;
47635;SDS011;33364;50.766;15.338;2023-02-11T01:40:48;42.20;;;20.60;;
47635;SDS011;33364;50.766;15.338;2023-02-11T01:43:19;48.67;;;23.58;;
47635;SDS011;33364;50.766;15.338;2023-02-11T01:48:12;45.75;;;22.15;;
47635;SDS011;33364;50.766;15.338;2023-02-11T01:50:46;42.95;;;21.55;;
47635;SDS011;33364;50.766;15.338;2023-02-11T01:53:15;43.13;;;20.65;;
47635;SDS011;33364;50.766;15.338;2023-02-11T01:56:00;46.57;;;23.53;;
47635;SDS011;33364;50.766;15.338;2023-02-11T01:58:46;54.97;;;26.92;;
47635;SDS011;33364;50.766;15.338;2023-02-11T02:01:15;45.70;;;22.05;;
47635;SDS011;33364;50.766;15.338;2023-02-11T02:03:44;44.10;;;22.00;;
47635;SDS011;33364;50.766;15.338;2023-02-11T02:06:17;50.60;;;24.95;;
47635;SDS011;33364;50.766;15.338;2023-02-11T02:08:51;46.40;;;22.33;;
47635;SDS011;33364;50.766;15.338;2023-02-11T02:11:25;46.55;;;21.70;;
47635;SDS011;33364;50.766;15.338;2023-02-11T02:13:51;44.13;;;21.80;;
47635;SDS011;33364;50.766;15.338;2023-02-11T02:16:18;44.13;;;21.05;;
47635;SDS011;33364;50.766;15.338;2023-02-11T02:18:52;46.22;;;21.85;;
47635;SDS011;33364;50.766;15.338;2023-02-11T02:38:10;48.60;;;24.63;;
47635;SDS011;33364;50.766;15.338;2023-02-11T02:40:51;47.25;;;23.65;;
47635;SDS011;33364;50.766;15.338;2023-02-11T02:43:21;46.95;;;23.73;;
47635;SDS011;33364;50.766;15.338;2023-02-11T02:45:50;41.78;;;21.90;;
47635;SDS011;33364;50.766;15.338;2023-02-11T02:48:29;41.97;;;22.23;;
47635;SDS011;33364;50.766;15.338;2023-02-11T03:00:15;43.22;;;22.52;;
47635;SDS011;33364;50.766;15.338;2023-02-11T03:06:27;57.47;;;26.00;;
47635;SDS011;33364;50.766;15.338;2023-02-11T03:09:12;48.13;;;23.52;;
47635;SDS011;33364;50.766;15.338;2023-02-11T03:11:39;46.78;;;22.77;;
47635;SDS011;33364;50.766;15.338;2023-02-11T03:14:07;43.58;;;23.02;;
47635;SDS011;33364;50.766;15.338;2023-02-11T03:16:35;48.03;;;23.70;;
47635;SDS011;33364;50.766;15.338;2023-02-11T03:19:05;44.53;;;22.08;;
47635;SDS011;33364;50.766;15.338;2023-02-11T03:21:35;44.50;;;21.50;;
47635;SDS011;33364;50.766;15.338;2023-02-11T03:24:05;43.90;;;22.63;;
47635;SDS011;33364;50.766;15.338;2023-02-11T03:26:39;47.75;;;22.25;;
47635;SDS011;33364;50.766;15.338;2023-02-11T03:31:59;48.88;;;23.48;;
47635;SDS011;33364;50.766;15.338;2023-02-11T03:37:10;46.60;;;23.75;;
47635;SDS011;33364;50.766;15.338;2023-02-11T03:39:46;46.58;;;24.13;;
47635;SDS011;33364;50.766;15.338;2023-02-11T03:42:35;49.03;;;23.98;;
47635;SDS011;33364;50.766;15.338;2023-02-11T03:45:08;49.50;;;24.13;;
47635;SDS011;33364;50.766;15.338;2023-02-11T03:47:37;56.38;;;25.48;;
47635;SDS011;33364;50.766;15.338;2023-02-11T03:50:09;51.83;;;24.15;;
47635;SDS011;33364;50.766;15.338;2023-02-11T03:52:35;46.15;;;22.40;;
47635;SDS011;33364;50.766;15.338;2023-02-11T03:55:05;49.55;;;24.77;;
47635;SDS011;33364;50.766;15.338;2023-02-11T03:57:35;57.10;;;27.55;;
47635;SDS011;33364;50.766;15.338;2023-02-11T04:00:02;54.80;;;26.25;;
47635;SDS011;33364;50.766;15.338;2023-02-11T04:02:29;52.38;;;25.73;;
47635;SDS011;33364;50.766;15.338;2023-02-11T04:04:59;44.33;;;23.75;;
47635;SDS011;33364;50.766;15.338;2023-02-11T04:07:25;52.63;;;25.92;;
47635;SDS011;33364;50.766;15.338;2023-02-11T04:09:51;51.13;;;26.02;;
47635;SDS011;33364;50.766;15.338;2023-02-11T04:12:17;50.53;;;26.45;;
47635;SDS011;33364;50.766;15.338;2023-02-11T04:14:43;48.60;;;25.73;;
47635;SDS011;33364;50.766;15.338;2023-02-11T04:17:09;48.95;;;24.25;;
47635;SDS011;33364;50.766;15.338;2023-02-11T04:19:35;53.65;;;31.15;;
47635;SDS011;33364;50.766;15.338;2023-02-11T04:22:01;47.80;;;25.05;;
47635;SDS011;33364;50.766;15.338;2023-02-11T04:24:27;46.80;;;23.30;;
47635;SDS011;33364;50.766;15.338;2023-02-11T04:26:52;49.78;;;24.30;;
47635;SDS011;33364;50.766;15.338;2023-02-11T04:29:18;46.22;;;23.85;;
47635;SDS011;33364;50.766;15.338;2023-02-11T04:31:44;40.85;;;20.65;;
47635;SDS011;33364;50.766;15.338;2023-02-11T04:34:10;47.83;;;23.08;;
47635;SDS011;33364;50.766;15.338;2023-02-11T04:36:36;49.92;;;24.35;;
47635;SDS011;33364;50.766;15.338;2023-02-11T04:39:02;57.05;;;27.60;;
47635;SDS011;33364;50.766;15.338;2023-02-11T04:41:28;66.65;;;28.13;;
47635;SDS011;33364;50.766;15.338;2023-02-11T04:43:54;53.58;;;27.33;;
47635;SDS011;33364;50.766;15.338;2023-02-11T04:46:20;51.83;;;27.17;;
47635;SDS011;33364;50.766;15.338;2023-02-11T04:48:45;47.47;;;24.42;;
47635;SDS011;33364;50.766;15.338;2023-02-11T04:51:11;50.42;;;24.90;;
47635;SDS011;33364;50.766;15.338;2023-02-11T04:53:37;50.63;;;24.90;;
47635;SDS011;33364;50.766;15.338;2023-02-11T04:56:03;47.00;;;22.58;;
47635;SDS011;33364;50.766;15.338;2023-02-11T04:58:29;44.08;;;21.20;;
47635;SDS011;33364;50.766;15.338;2023-02-11T05:00:55;48.35;;;23.38;;
47635;SDS011;33364;50.766;15.338;2023-02-11T05:03:21;40.70;;;22.42;;
47635;SDS011;33364;50.766;15.338;2023-02-11T05:05:46;41.15;;;22.02;;
47635;SDS011;33364;50.766;15.338;2023-02-11T05:08:12;43.17;;;22.15;;
47635;SDS011;33364;50.766;15.338;2023-02-11T05:10:38;42.70;;;20.63;;
47635;SDS011;33364;50.766;15.338;2023-02-11T05:13:04;44.58;;;22.95;;
47635;SDS011;33364;50.766;15.338;2023-02-11T05:15:29;50.55;;;23.13;;
47635;SDS011;33364;50.766;15.338;2023-02-11T05:17:56;50.35;;;23.95;;
47635;SDS011;33364;50.766;15.338;2023-02-11T05:20:21;45.65;;;22.70;;
47635;SDS011;33364;50.766;15.338;2023-02-11T05:22:47;47.92;;;23.10;;
47635;SDS011;33364;50.766;15.338;2023-02-11T05:25:13;42.25;;;20.52;;
47635;SDS011;33364;50.766;15.338;2023-02-11T05:27:39;45.92;;;22.55;;
47635;SDS011;33364;50.766;15.338;2023-02-11T05:30:04;44.85;;;23.80;;
47635;SDS011;33364;50.766;15.338;2023-02-11T05:32:31;45.08;;;22.90;;
47635;SDS011;33364;50.766;15.338;2023-02-11T05:34:57;45.40;;;23.60;;
47635;SDS011;33364;50.766;15.338;2023-02-11T05:37:23;44.20;;;21.70;;
47635;SDS011;33364;50.766;15.338;2023-02-11T05:39:49;43.38;;;21.88;;
47635;SDS011;33364;50.766;15.338;2023-02-11T05:42:15;41.67;;;22.67;;
47635;SDS011;33364;50.766;15.338;2023-02-11T05:44:40;41.30;;;22.35;;
47635;SDS011;33364;50.766;15.338;2023-02-11T05:47:06;64.82;;;29.33;;
47635;SDS011;33364;50.766;15.338;2023-02-11T05:49:33;53.05;;;26.38;;
47635;SDS011;33364;50.766;15.338;2023-02-11T05:51:59;63.55;;;31.10;;
47635;SDS011;33364;50.766;15.338;2023-02-11T05:54:25;50.38;;;25.00;;
47635;SDS011;33364;50.766;15.338;2023-02-11T05:56:51;43.95;;;22.50;;
47635;SDS011;33364;50.766;15.338;2023-02-11T05:59:16;51.83;;;24.65;;
47635;SDS011;33364;50.766;15.338;2023-02-11T06:01:43;44.33;;;22.30;;
47635;SDS011;33364;50.766;15.338;2023-02-11T06:04:08;42.97;;;22.13;;
47635;SDS011;33364;50.766;15.338;2023-02-11T06:06:34;37.75;;;19.83;;
47635;SDS011;33364;50.766;15.338;2023-02-11T06:09:00;41.25;;;22.00;;
47635;SDS011;33364;50.766;15.338;2023-02-11T06:11:26;40.97;;;22.23;;
47635;SDS011;33364;50.766;15.338;2023-02-11T06:13:51;41.72;;;22.08;;
47635;SDS011;33364;50.766;15.338;2023-02-11T06:16:17;119.25;;;48.03;;
47635;SDS011;33364;50.766;15.338;2023-02-11T06:18:43;175.60;;;70.78;;
47635;SDS011;33364;50.766;15.338;2023-02-11T06:21:09;292.15;;;101.05;;
47635;SDS011;33364;50.766;15.338;2023-02-11T06:23:35;263.85;;;100.68;;
47635;SDS011;33364;50.766;15.338;2023-02-11T06:26:02;250.60;;;93.47;;
47635;SDS011;33364;50.766;15.338;2023-02-11T06:28:29;125.78;;;53.80;;
47635;SDS011;33364;50.766;15.338;2023-02-11T06:31:03;176.00;;;84.45;;
47635;SDS011;33364;50.766;15.338;2023-02-11T06:33:30;111.55;;;53.17;;
47635;SDS011;33364;50.766;15.338;2023-02-11T06:35:56;101.45;;;47.58;;
47635;SDS011;33364;50.766;15.338;2023-02-11T06:38:22;88.70;;;43.17;;
47635;SDS011;33364;50.766;15.338;2023-02-11T06:40:48;79.90;;;39.42;;
47635;SDS011;33364;50.766;15.338;2023-02-11T06:43:14;88.93;;;46.40;;
47635;SDS011;33364;50.766;15.338;2023-02-11T06:45:41;83.60;;;44.08;;
47635;SDS011;33364;50.766;15.338;2023-02-11T06:48:07;84.57;;;44.45;;
47635;SDS011;33364;50.766;15.338;2023-02-11T06:50:33;88.75;;;40.92;;
47635;SDS011;33364;50.766;15.338;2023-02-11T06:52:59;75.28;;;40.17;;
47635;SDS011;33364;50.766;15.338;2023-02-11T06:55:25;78.43;;;39.58;;
47635;SDS011;33364;50.766;15.338;2023-02-11T06:57:51;76.70;;;38.58;;
47635;SDS011;33364;50.766;15.338;2023-02-11T07:00:20;73.88;;;37.55;;
47635;SDS011;33364;50.766;15.338;2023-02-11T07:02:45;78.65;;;40.40;;
47635;SDS011;33364;50.766;15.338;2023-02-11T07:05:11;81.93;;;41.33;;
47635;SDS011;33364;50.766;15.338;2023-02-11T07:07:37;83.57;;;43.55;;
47635;SDS011;33364;50.766;15.338;2023-02-11T07:10:03;92.95;;;46.80;;
47635;SDS011;33364;50.766;15.338;2023-02-11T07:12:30;89.57;;;44.58;;
47635;SDS011;33364;50.766;15.338;2023-02-11T07:14:56;103.70;;;50.03;;
47635;SDS011;33364;50.766;15.338;2023-02-11T07:17:22;93.95;;;47.55;;
47635;SDS011;33364;50.766;15.338;2023-02-11T07:19:48;87.38;;;45.58;;
47635;SDS011;33364;50.766;15.338;2023-02-11T07:22:13;80.93;;;40.25;;
47635;SDS011;33364;50.766;15.338;2023-02-11T07:24:39;70.38;;;36.17;;
47635;SDS011;33364;50.766;15.338;2023-02-11T07:27:05;77.85;;;36.60;;
47635;SDS011;33364;50.766;15.338;2023-02-11T07:29:32;65.63;;;33.45;;
47635;SDS011;33364;50.766;15.338;2023-02-11T07:31:58;70.75;;;34.35;;
47635;SDS011;33364;50.766;15.338;2023-02-11T07:34:24;73.03;;;35.28;;
47635;SDS011;33364;50.766;15.338;2023-02-11T07:36:50;62.85;;;31.63;;
47635;SDS011;33364;50.766;15.338;2023-02-11T07:39:19;59.72;;;30.38;;
47635;SDS011;33364;50.766;15.338;2023-02-11T07:41:46;63.90;;;31.00;;
47635;SDS011;33364;50.766;15.338;2023-02-11T07:44:14;55.05;;;27.77;;
47635;SDS011;33364;50.766;15.338;2023-02-11T07:46:40;57.50;;;28.08;;
47635;SDS011;33364;50.766;15.338;2023-02-11T07:49:10;56.60;;;27.45;;
47635;SDS011;33364;50.766;15.338;2023-02-11T07:51:36;54.28;;;26.80;;
47635;SDS011;33364;50.766;15.338;2023-02-11T07:54:02;50.30;;;26.40;;
47635;SDS011;33364;50.766;15.338;2023-02-11T07:56:28;56.03;;;28.20;;
47635;SDS011;33364;50.766;15.338;2023-02-11T07:58:57;52.70;;;26.92;;
47635;SDS011;33364;50.766;15.338;2023-02-11T08:01:25;57.55;;;29.55;;
47635;SDS011;33364;50.766;15.338;2023-02-11T08:03:54;50.28;;;27.83;;
47635;SDS011;33364;50.766;15.338;2023-02-11T08:06:22;51.38;;;28.48;;
47635;SDS011;33364;50.766;15.338;2023-02-11T08:08:49;56.53;;;28.15;;
47635;SDS011;33364;50.766;15.338;2023-02-11T08:11:20;55.08;;;29.77;;
47635;SDS011;33364;50.766;15.338;2023-02-11T08:13:51;53.03;;;28.35;;
47635;SDS011;33364;50.766;15.338;2023-02-11T08:16:22;58.70;;;31.75;;
47635;SDS011;33364;50.766;15.338;2023-02-11T08:18:48;60.05;;;30.75;;
47635;SDS011;33364;50.766;15.338;2023-02-11T08:21:14;60.05;;;29.90;;
47635;SDS011;33364;50.766;15.338;2023-02-11T08:23:41;68.00;;;35.25;;
47635;SDS011;33364;50.766;15.338;2023-02-11T08:26:12;70.40;;;34.85;;
47635;SDS011;33364;50.766;15.338;2023-02-11T08:28:41;76.28;;;38.42;;
47635;SDS011;33364;50.766;15.338;2023-02-11T08:31:09;222.18;;;118.68;;
47635;SDS011;33364;50.766;15.338;2023-02-11T08:33:40;206.32;;;107.00;;
47635;SDS011;33364;50.766;15.338;2023-02-11T08:36:09;204.85;;;108.60;;
47635;SDS011;33364;50.766;15.338;2023-02-11T08:38:38;115.90;;;59.67;;
47635;SDS011;33364;50.766;15.338;2023-02-11T08:41:03;101.55;;;50.40;;
47635;SDS011;33364;50.766;15.338;2023-02-11T08:43:31;111.45;;;58.70;;
47635;SDS011;33364;50.766;15.338;2023-02-11T08:45:58;116.53;;;60.70;;
47635;SDS011;33364;50.766;15.338;2023-02-11T08:48:25;108.07;;;57.65;;
47635;SDS011;33364;50.766;15.338;2023-02-11T08:50:53;109.97;;;58.03;;
47635;SDS011;33364;50.766;15.338;2023-02-11T08:53:20;104.50;;;55.92;;
47635;SDS011;33364;50.766;15.338;2023-02-11T08:55:49;90.55;;;50.47;;
47635;SDS011;33364;50.766;15.338;2023-02-11T08:58:15;100.07;;;53.05;;
47635;SDS011;33364;50.766;15.338;2023-02-11T09:00:41;96.68;;;50.50;;
47635;SDS011;33364;50.766;15.338;2023-02-11T09:03:10;98.28;;;49.72;;
47635;SDS011;33364;50.766;15.338;2023-02-11T09:05:40;83.50;;;46.28;;
47635;SDS011;33364;50.766;15.338;2023-02-11T09:08:07;82.35;;;40.97;;
47635;SDS011;33364;50.766;15.338;2023-02-11T09:10:33;73.68;;;40.92;;
47635;SDS011;33364;50.766;15.338;2023-02-11T09:13:00;66.07;;;34.47;;
47635;SDS011;33364;50.766;15.338;2023-02-11T09:15:27;66.10;;;36.92;;
47635;SDS011;33364;50.766;15.338;2023-02-11T09:17:54;62.35;;;34.95;;
47635;SDS011;33364;50.766;15.338;2023-02-11T09:20:21;98.88;;;48.38;;
47635;SDS011;33364;50.766;15.338;2023-02-11T09:22:48;129.60;;;67.82;;
47635;SDS011;33364;50.766;15.338;2023-02-11T09:25:15;133.07;;;68.40;;
47635;SDS011;33364;50.766;15.338;2023-02-11T09:27:42;118.18;;;60.45;;
47635;SDS011;33364;50.766;15.338;2023-02-11T09:30:09;97.05;;;50.78;;
47635;SDS011;33364;50.766;15.338;2023-02-11T09:32:36;101.07;;;51.20;;
47635;SDS011;33364;50.766;15.338;2023-02-11T09:35:02;100.38;;;54.05;;
47635;SDS011;33364;50.766;15.338;2023-02-11T09:37:28;118.43;;;61.38;;
47635;SDS011;33364;50.766;15.338;2023-02-11T09:39:54;129.68;;;64.53;;
47635;SDS011;33364;50.766;15.338;2023-02-11T09:45:16;79.38;;;41.05;;
47635;SDS011;33364;50.766;15.338;2023-02-11T09:47:46;89.43;;;45.00;;
47635;SDS011;33364;50.766;15.338;2023-02-11T09:55:37;98.22;;;49.63;;
47635;SDS011;33364;50.766;15.338;2023-02-11T09:58:41;93.18;;;47.17;;
47635;SDS011;33364;50.766;15.338;2023-02-11T10:01:07;93.65;;;47.75;;
47635;SDS011;33364;50.766;15.338;2023-02-11T10:06:51;81.20;;;40.08;;
47635;SDS011;33364;50.766;15.338;2023-02-11T10:10:06;76.25;;;40.40;;
47635;SDS011;33364;50.766;15.338;2023-02-11T10:15:27;76.63;;;38.72;;
47635;SDS011;33364;50.766;15.338;2023-02-11T10:20:36;73.53;;;38.88;;
47635;SDS011;33364;50.766;15.338;2023-02-11T10:23:12;85.40;;;45.38;;
47635;SDS011;33364;50.766;15.338;2023-02-11T10:25:46;97.90;;;43.65;;
47635;SDS011;33364;50.766;15.338;2023-02-11T10:28:18;79.07;;;40.15;;
47635;SDS011;33364;50.766;15.338;2023-02-11T10:33:59;105.72;;;57.28;;
47635;SDS011;33364;50.766;15.338;2023-02-11T10:36:29;87.57;;;42.83;;
47635;SDS011;33364;50.766;15.338;2023-02-11T10:39:08;84.97;;;43.78;;
47635;SDS011;33364;50.766;15.338;2023-02-11T10:41:37;148.55;;;79.93;;
47635;SDS011;33364;50.766;15.338;2023-02-11T10:44:10;96.70;;;50.33;;
47635;SDS011;33364;50.766;15.338;2023-02-11T10:46:52;87.25;;;43.30;;
47635;SDS011;33364;50.766;15.338;2023-02-11T10:49:33;102.55;;;55.63;;
47635;SDS011;33364;50.766;15.338;2023-02-11T10:57:50;79.22;;;42.40;;
47635;SDS011;33364;50.766;15.338;2023-02-11T11:02:55;74.18;;;39.60;;
47635;SDS011;33364;50.766;15.338;2023-02-11T11:05:36;76.50;;;41.90;;
47635;SDS011;33364;50.766;15.338;2023-02-11T11:08:12;80.70;;;42.88;;
47635;SDS011;33364;50.766;15.338;2023-02-11T11:10:40;72.90;;;40.45;;
47635;SDS011;33364;50.766;15.338;2023-02-11T11:16:08;75.78;;;37.45;;
47635;SDS011;33364;50.766;15.338;2023-02-11T11:21:23;69.35;;;35.65;;
47635;SDS011;33364;50.766;15.338;2023-02-11T11:26:51;75.22;;;40.42;;
47635;SDS011;33364;50.766;15.338;2023-02-11T11:29:20;77.65;;;41.97;;
47635;SDS011;33364;50.766;15.338;2023-02-11T11:31:56;78.35;;;41.33;;
47635;SDS011;33364;50.766;15.338;2023-02-11T11:36:59;76.38;;;36.67;;
47635;SDS011;33364;50.766;15.338;2023-02-11T11:39:33;78.00;;;40.00;;
47635;SDS011;33364;50.766;15.338;2023-02-11T11:42:01;81.28;;;42.17;;
47635;SDS011;33364;50.766;15.338;2023-02-11T11:44:33;83.78;;;41.90;;
47635;SDS011;33364;50.766;15.338;2023-02-11T11:49:38;81.53;;;43.25;;
47635;SDS011;33364;50.766;15.338;2023-02-11T11:52:15;81.55;;;41.47;;
47635;SDS011;33364;50.766;15.338;2023-02-11T11:57:38;86.88;;;43.75;;
47635;SDS011;33364;50.766;15.338;2023-02-11T12:00:04;77.32;;;41.92;;
47635;SDS011;33364;50.766;15.338;2023-02-11T12:14:40;81.03;;;39.95;;
47635;SDS011;33364;50.766;15.338;2023-02-11T12:20:37;77.80;;;40.22;;
47635;SDS011;33364;50.766;15.338;2023-02-11T12:34:35;86.75;;;44.28;;
47635;SDS011;33364;50.766;15.338;2023-02-11T12:37:17;78.70;;;41.33;;
47635;SDS011;33364;50.766;15.338;2023-02-11T12:54:23;117.25;;;62.65;;
47635;SDS011;33364;50.766;15.338;2023-02-11T13:02:19;80.65;;;44.05;;
47635;SDS011;33364;50.766;15.338;2023-02-11T13:04:56;96.30;;;50.08;;
47635;SDS011;33364;50.766;15.338;2023-02-11T13:07:33;90.00;;;49.00;;
47635;SDS011;33364;50.766;15.338;2023-02-11T13:10:04;99.88;;;54.40;;
47635;SDS011;33364;50.766;15.338;2023-02-11T13:12:42;96.63;;;52.35;;
47635;SDS011;33364;50.766;15.338;2023-02-11T13:15:29;90.60;;;49.15;;
47635;SDS011;33364;50.766;15.338;2023-02-11T13:17:58;98.05;;;51.28;;
47635;SDS011;33364;50.766;15.338;2023-02-11T13:29:30;112.03;;;55.83;;
47635;SDS011;33364;50.766;15.338;2023-02-11T13:32:10;100.40;;;55.08;;
47635;SDS011;33364;50.766;15.338;2023-02-11T13:42:26;98.03;;;50.83;;
47635;SDS011;33364;50.766;15.338;2023-02-11T13:44:53;96.57;;;50.50;;
47635;SDS011;33364;50.766;15.338;2023-02-11T13:49:59;63.75;;;34.00;;
47635;SDS011;33364;50.766;15.338;2023-02-11T13:52:34;48.40;;;27.73;;
47635;SDS011;33364;50.766;15.338;2023-02-11T13:55:14;41.42;;;23.95;;
47635;SDS011;33364;50.766;15.338;2023-02-11T14:03:42;35.55;;;20.33;;
47635;SDS011;33364;50.766;15.338;2023-02-11T14:19:34;40.42;;;24.15;;
47635;SDS011;33364;50.766;15.338;2023-02-11T14:22:01;56.08;;;28.85;;
47635;SDS011;33364;50.766;15.338;2023-02-11T14:27:06;52.35;;;27.17;;
47635;SDS011;33364;50.766;15.338;2023-02-11T14:29:41;50.72;;;26.52;;
47635;SDS011;33364;50.766;15.338;2023-02-11T14:35:22;73.18;;;37.92;;
47635;SDS011;33364;50.766;15.338;2023-02-11T14:38:06;55.78;;;30.42;;
47635;SDS011;33364;50.766;15.338;2023-02-11T14:40:47;42.85;;;22.70;;
47635;SDS011;33364;50.766;15.338;2023-02-11T14:43:23;36.10;;;20.02;;
47635;SDS011;33364;50.766;15.338;2023-02-11T14:45:55;31.83;;;19.20;;
47635;SDS011;33364;50.766;15.338;2023-02-11T14:48:26;35.67;;;18.30;;
47635;SDS011;33364;50.766;15.338;2023-02-11T14:50:57;31.27;;;18.23;;
47635;SDS011;33364;50.766;15.338;2023-02-11T14:53:27;32.00;;;19.02;;
47635;SDS011;33364;50.766;15.338;2023-02-11T14:55:56;26.30;;;16.20;;
47635;SDS011;33364;50.766;15.338;2023-02-11T14:58:23;38.50;;;26.30;;
47635;SDS011;33364;50.766;15.338;2023-02-11T15:00:55;42.80;;;27.10;;
47635;SDS011;33364;50.766;15.338;2023-02-11T15:03:24;34.45;;;20.88;;
47635;SDS011;33364;50.766;15.338;2023-02-11T15:06:01;27.77;;;18.52;;
47635;SDS011;33364;50.766;15.338;2023-02-11T15:08:27;20.63;;;13.48;;
47635;SDS011;33364;50.766;15.338;2023-02-11T15:10:55;42.35;;;24.77;;
47635;SDS011;33364;50.766;15.338;2023-02-11T15:13:22;33.90;;;19.77;;
47635;SDS011;33364;50.766;15.338;2023-02-11T15:15:57;29.60;;;17.60;;
47635;SDS011;33364;50.766;15.338;2023-02-11T15:18:29;29.90;;;16.58;;
47635;SDS011;33364;50.766;15.338;2023-02-11T15:21:02;25.60;;;14.32;;
47635;SDS011;33364;50.766;15.338;2023-02-11T15:23:28;32.15;;;15.80;;
47635;SDS011;33364;50.766;15.338;2023-02-11T15:25:55;31.25;;;16.63;;
47635;SDS011;33364;50.766;15.338;2023-02-11T15:30:59;40.30;;;23.67;;
47635;SDS011;33364;50.766;15.338;2023-02-11T15:33:27;45.75;;;24.00;;
47635;SDS011;33364;50.766;15.338;2023-02-11T15:35:55;23.33;;;12.98;;
47635;SDS011;33364;50.766;15.338;2023-02-11T15:38:21;35.03;;;19.15;;
47635;SDS011;33364;50.766;15.338;2023-02-11T15:40:55;30.45;;;16.95;;
47635;SDS011;33364;50.766;15.338;2023-02-11T15:46:14;32.85;;;16.75;;
47635;SDS011;33364;50.766;15.338;2023-02-11T15:48:44;23.90;;;13.65;;
47635;SDS011;33364;50.766;15.338;2023-02-11T15:51:32;17.13;;;10.68;;
47635;SDS011;33364;50.766;15.338;2023-02-11T15:54:01;21.80;;;12.73;;
47635;SDS011;33364;50.766;15.338;2023-02-11T15:56:33;21.05;;;14.25;;
47635;SDS011;33364;50.766;15.338;2023-02-11T15:59:16;24.60;;;15.23;;
47635;SDS011;33364;50.766;15.338;2023-02-11T16:01:56;27.25;;;17.17;;
47635;SDS011;33364;50.766;15.338;2023-02-11T16:04:23;24.50;;;15.02;;
47635;SDS011;33364;50.766;15.338;2023-02-11T16:06:51;19.30;;;13.85;;
47635;SDS011;33364;50.766;15.338;2023-02-11T16:09:32;24.35;;;15.15;;
47635;SDS011;33364;50.766;15.338;2023-02-11T16:12:03;25.70;;;15.63;;
47635;SDS011;33364;50.766;15.338;2023-02-11T16:14:47;25.73;;;17.70;;
47635;SDS011;33364;50.766;15.338;2023-02-11T16:19:48;37.80;;;24.43;;
47635;SDS011;33364;50.766;15.338;2023-02-11T16:22:17;25.63;;;14.18;;
47635;SDS011;33364;50.766;15.338;2023-02-11T16:24:52;19.15;;;13.50;;
47635;SDS011;33364;50.766;15.338;2023-02-11T16:27:26;29.98;;;15.02;;
47635;SDS011;33364;50.766;15.338;2023-02-11T16:29:58;31.27;;;14.15;;
47635;SDS011;33364;50.766;15.338;2023-02-11T16:32:26;36.50;;;15.93;;
47635;SDS011;33364;50.766;15.338;2023-02-11T16:34:54;74.85;;;42.78;;
47635;SDS011;33364;50.766;15.338;2023-02-11T16:37:22;70.78;;;45.15;;
47635;SDS011;33364;50.766;15.338;2023-02-11T16:39:52;34.33;;;17.98;;
47635;SDS011;33364;50.766;15.338;2023-02-11T16:42:18;28.52;;;14.90;;
47635;SDS011;33364;50.766;15.338;2023-02-11T16:44:44;49.80;;;26.60;;
47635;SDS011;33364;50.766;15.338;2023-02-11T16:47:16;52.35;;;30.10;;
47635;SDS011;33364;50.766;15.338;2023-02-11T16:49:47;36.75;;;19.73;;
47635;SDS011;33364;50.766;15.338;2023-02-11T16:52:13;37.15;;;19.67;;
47635;SDS011;33364;50.766;15.338;2023-02-11T16:54:40;39.90;;;21.35;;
47635;SDS011;33364;50.766;15.338;2023-02-11T16:57:13;28.25;;;15.23;;
47635;SDS011;33364;50.766;15.338;2023-02-11T16:59:41;36.67;;;19.42;;
47635;SDS011;33364;50.766;15.338;2023-02-11T17:02:19;55.63;;;27.25;;
47635;SDS011;33364;50.766;15.338;2023-02-11T17:04:45;25.17;;;14.82;;
47635;SDS011;33364;50.766;15.338;2023-02-11T17:07:11;27.30;;;14.43;;
47635;SDS011;33364;50.766;15.338;2023-02-11T17:09:37;54.35;;;25.75;;
47635;SDS011;33364;50.766;15.338;2023-02-11T17:12:03;53.35;;;29.25;;
47635;SDS011;33364;50.766;15.338;2023-02-11T17:14:29;34.50;;;18.35;;
47635;SDS011;33364;50.766;15.338;2023-02-11T17:16:55;77.32;;;32.78;;
47635;SDS011;33364;50.766;15.338;2023-02-11T17:19:21;38.95;;;20.75;;
47635;SDS011;33364;50.766;15.338;2023-02-11T17:21:49;91.68;;;46.83;;